sensor_id;sensor_type;location;lat;lon;timestamp;pressure;altitude;pressure_sealevel;temperature;humidity
73316;BME280;61545;53.726;-0.444;2022-09-13T00:03:00;1009.0;;;14.1;86.5
73316;BME280;61545;53.726;-0.444;2022-09-13T00:08:00;1008.9;;;14.1;86.3
73316;BME280;61545;53.726;-0.444;2022-09-13T00:13:00;1008.8;;;14.0;85.9
73316;BME280;61545;53.726;-0.444;2022-09-13T00:18:00;1008.9;;;13.7;85.5
73316;BME280;61545;53.726;-0.444;2022-09-13T00:23:00;1008.9;;;13.6;85.3
73316;BME280;61545;53.726;-0.444;2022-09-13T00:28:00;1008.9;;;13.4;84.9
73316;BME280;61545;53.726;-0.444;2022-09-13T00:33:00;1008.9;;;13.7;84.6
73316;BME280;61545;53.726;-0.444;2022-09-13T00:38:00;1008.9;;;13.6;84.5
73316;BME280;61545;53.726;-0.444;2022-09-13T00:43:00;1008.8;;;13.6;84.2
73316;BME280;61545;53.726;-0.444;2022-09-13T00:48:00;1008.9;;;13.6;84.1
73316;BME280;61545;53.726;-0.444;2022-09-13T00:53:02;1008.8;;;13.7;83.9
73316;BME280;61545;53.726;-0.444;2022-09-13T00:58:04;1008.8;;;13.2;83.7
73316;BME280;61545;53.726;-0.444;2022-09-13T01:03:01;1008.8;;;13.3;83.6
73316;BME280;61545;53.726;-0.444;2022-09-13T01:08:00;1008.7;;;13.0;83.6
73316;BME280;61545;53.726;-0.444;2022-09-13T01:13:03;1008.7;;;12.9;83.9
73316;BME280;61545;53.726;-0.444;2022-09-13T01:18:00;1008.6;;;12.8;84.1
73316;BME280;61545;53.726;-0.444;2022-09-13T01:23:18;1008.6;;;12.6;84.4
73316;BME280;61545;53.726;-0.444;2022-09-13T01:28:42;1008.7;;;12.9;84.6
73316;BME280;61545;53.726;-0.444;2022-09-13T01:33:10;1008.6;;;13.0;84.8
73316;BME280;61545;53.726;-0.444;2022-09-13T01:38:02;1008.5;;;12.9;84.9
73316;BME280;61545;53.726;-0.444;2022-09-13T01:43:09;1008.5;;;13.0;85.4
73316;BME280;61545;53.726;-0.444;2022-09-13T01:48:01;1008.5;;;12.9;85.6
73316;BME280;61545;53.726;-0.444;2022-09-13T01:53:02;1008.4;;;13.2;85.8
73316;BME280;61545;53.726;-0.444;2022-09-13T01:58:04;1008.5;;;12.9;85.7
73316;BME280;61545;53.726;-0.444;2022-09-13T02:03:01;1008.4;;;12.9;85.6
73316;BME280;61545;53.726;-0.444;2022-09-13T02:08:02;1008.5;;;13.0;85.5
73316;BME280;61545;53.726;-0.444;2022-09-13T02:13:00;1008.7;;;13.0;85.4
73316;BME280;61545;53.726;-0.444;2022-09-13T02:18:02;1008.6;;;12.8;85.3
73316;BME280;61545;53.726;-0.444;2022-09-13T02:23:02;1008.6;;;12.4;85.2
73316;BME280;61545;53.726;-0.444;2022-09-13T02:28:02;1008.8;;;12.7;85.4
73316;BME280;61545;53.726;-0.444;2022-09-13T02:33:02;1008.7;;;12.5;85.4
73316;BME280;61545;53.726;-0.444;2022-09-13T02:38:01;1008.7;;;12.7;85.3
73316;BME280;61545;53.726;-0.444;2022-09-13T02:43:03;1008.6;;;12.7;85.2
73316;BME280;61545;53.726;-0.444;2022-09-13T02:48:03;1008.6;;;12.7;85.1
73316;BME280;61545;53.726;-0.444;2022-09-13T02:53:03;1008.7;;;12.8;85.0
73316;BME280;61545;53.726;-0.444;2022-09-13T02:58:02;1008.7;;;12.5;84.9
73316;BME280;61545;53.726;-0.444;2022-09-13T03:03:02;1008.7;;;12.8;84.9
73316;BME280;61545;53.726;-0.444;2022-09-13T03:08:00;1008.7;;;12.9;84.7
73316;BME280;61545;53.726;-0.444;2022-09-13T03:13:08;1008.6;;;12.7;84.4
73316;BME280;61545;53.726;-0.444;2022-09-13T03:18:05;1008.8;;;12.5;84.3
73316;BME280;61545;53.726;-0.444;2022-09-13T03:23:22;1008.8;;;12.7;84.1
73316;BME280;61545;53.726;-0.444;2022-09-13T03:28:02;1008.7;;;12.6;83.8
73316;BME280;61545;53.726;-0.444;2022-09-13T03:33:03;1008.8;;;12.5;83.5
73316;BME280;61545;53.726;-0.444;2022-09-13T03:38:01;1008.9;;;12.7;83.3
73316;BME280;61545;53.726;-0.444;2022-09-13T03:43:01;1008.9;;;12.7;83.2
73316;BME280;61545;53.726;-0.444;2022-09-13T03:48:00;1008.9;;;12.7;83.1
73316;BME280;61545;53.726;-0.444;2022-09-13T03:53:03;1008.9;;;12.5;83.0
73316;BME280;61545;53.726;-0.444;2022-09-13T03:58:00;1008.8;;;12.4;83.0
73316;BME280;61545;53.726;-0.444;2022-09-13T04:03:00;1008.9;;;12.5;83.1
73316;BME280;61545;53.726;-0.444;2022-09-13T04:08:00;1008.9;;;12.3;83.1
73316;BME280;61545;53.726;-0.444;2022-09-13T04:13:00;1008.9;;;11.9;83.2
73316;BME280;61545;53.726;-0.444;2022-09-13T04:18:00;1009.0;;;12.2;83.3
73316;BME280;61545;53.726;-0.444;2022-09-13T04:23:00;1009.0;;;12.4;83.8
73316;BME280;61545;53.726;-0.444;2022-09-13T04:28:00;1009.0;;;12.3;83.9
73316;BME280;61545;53.726;-0.444;2022-09-13T04:33:00;1009.1;;;11.8;84.0
73316;BME280;61545;53.726;-0.444;2022-09-13T04:38:00;1009.1;;;12.0;84.3
73316;BME280;61545;53.726;-0.444;2022-09-13T04:43:00;1009.0;;;12.1;84.3
73316;BME280;61545;53.726;-0.444;2022-09-13T04:48:00;1009.1;;;12.0;84.5
73316;BME280;61545;53.726;-0.444;2022-09-13T04:53:00;1009.1;;;11.9;84.5
73316;BME280;61545;53.726;-0.444;2022-09-13T04:58:00;1009.1;;;12.3;84.5
73316;BME280;61545;53.726;-0.444;2022-09-13T05:03:00;1009.1;;;12.5;84.8
73316;BME280;61545;53.726;-0.444;2022-09-13T05:08:00;1009.1;;;12.4;85.2
73316;BME280;61545;53.726;-0.444;2022-09-13T05:13:00;1009.3;;;12.2;86.2
73316;BME280;61545;53.726;-0.444;2022-09-13T05:18:00;1009.3;;;12.3;86.8
73316;BME280;61545;53.726;-0.444;2022-09-13T05:23:00;1009.2;;;12.2;87.4
73316;BME280;61545;53.726;-0.444;2022-09-13T05:28:00;1009.1;;;12.0;87.7
73316;BME280;61545;53.726;-0.444;2022-09-13T05:33:00;1009.1;;;12.1;88.3
73316;BME280;61545;53.726;-0.444;2022-09-13T05:38:00;1009.1;;;12.2;88.7
73316;BME280;61545;53.726;-0.444;2022-09-13T05:43:00;1009.1;;;12.0;88.8
73316;BME280;61545;53.726;-0.444;2022-09-13T05:48:00;1009.1;;;12.1;88.7
73316;BME280;61545;53.726;-0.444;2022-09-13T05:53:00;1009.2;;;12.0;88.4
73316;BME280;61545;53.726;-0.444;2022-09-13T05:58:00;1009.2;;;12.2;87.9
73316;BME280;61545;53.726;-0.444;2022-09-13T06:03:00;1009.3;;;12.3;87.5
73316;BME280;61545;53.726;-0.444;2022-09-13T06:08:00;1009.3;;;12.5;86.4
73316;BME280;61545;53.726;-0.444;2022-09-13T06:13:00;1009.2;;;13.0;86.0
73316;BME280;61545;53.726;-0.444;2022-09-13T06:18:00;1009.3;;;13.5;84.7
73316;BME280;61545;53.726;-0.444;2022-09-13T06:23:00;1009.2;;;14.0;82.8
73316;BME280;61545;53.726;-0.444;2022-09-13T06:28:00;1009.2;;;14.5;80.5
73316;BME280;61545;53.726;-0.444;2022-09-13T06:33:00;1009.2;;;15.0;77.6
73316;BME280;61545;53.726;-0.444;2022-09-13T06:38:00;1009.1;;;15.4;75.1
73316;BME280;61545;53.726;-0.444;2022-09-13T06:43:00;1009.2;;;15.3;72.8
73316;BME280;61545;53.726;-0.444;2022-09-13T06:48:00;1009.3;;;16.0;70.9
73316;BME280;61545;53.726;-0.444;2022-09-13T06:53:00;1009.2;;;16.2;68.9
73316;BME280;61545;53.726;-0.444;2022-09-13T06:58:00;1009.2;;;17.0;66.8
73316;BME280;61545;53.726;-0.444;2022-09-13T07:03:00;1009.1;;;16.9;65.3
73316;BME280;61545;53.726;-0.444;2022-09-13T07:08:00;1009.2;;;17.1;63.7
73316;BME280;61545;53.726;-0.444;2022-09-13T07:13:00;1009.2;;;17.9;62.5
73316;BME280;61545;53.726;-0.444;2022-09-13T07:18:00;1009.2;;;16.8;61.1
73316;BME280;61545;53.726;-0.444;2022-09-13T07:23:00;1009.2;;;17.3;61.2
73316;BME280;61545;53.726;-0.444;2022-09-13T07:28:00;1009.2;;;18.7;60.9
73316;BME280;61545;53.726;-0.444;2022-09-13T07:33:00;1009.2;;;18.5;61.0
73316;BME280;61545;53.726;-0.444;2022-09-13T07:38:00;1009.2;;;18.4;60.8
73316;BME280;61545;53.726;-0.444;2022-09-13T07:43:00;1009.1;;;19.6;60.3
73316;BME280;61545;53.726;-0.444;2022-09-13T07:48:00;1009.2;;;17.5;59.8
73316;BME280;61545;53.726;-0.444;2022-09-13T07:53:00;1009.2;;;19.8;59.5
73316;BME280;61545;53.726;-0.444;2022-09-13T07:58:00;1009.1;;;20.3;58.9
73316;BME280;61545;53.726;-0.444;2022-09-13T08:03:00;1009.1;;;19.9;58.1
73316;BME280;61545;53.726;-0.444;2022-09-13T08:08:00;1009.1;;;20.3;57.9
73316;BME280;61545;53.726;-0.444;2022-09-13T08:13:00;1009.2;;;20.3;57.8
73316;BME280;61545;53.726;-0.444;2022-09-13T08:18:00;1009.3;;;20.2;57.4
73316;BME280;61545;53.726;-0.444;2022-09-13T08:23:00;1009.3;;;20.4;57.2
73316;BME280;61545;53.726;-0.444;2022-09-13T08:28:00;1009.3;;;20.4;57.1
73316;BME280;61545;53.726;-0.444;2022-09-13T08:33:00;1009.3;;;19.6;56.7
73316;BME280;61545;53.726;-0.444;2022-09-13T08:38:00;1009.4;;;20.1;56.7
73316;BME280;61545;53.726;-0.444;2022-09-13T08:43:01;1009.2;;;19.9;56.3
73316;BME280;61545;53.726;-0.444;2022-09-13T08:48:01;1009.3;;;19.7;55.3
73316;BME280;61545;53.726;-0.444;2022-09-13T08:53:10;1009.2;;;20.6;56.5
73316;BME280;61545;53.726;-0.444;2022-09-13T08:58:03;1009.3;;;20.6;56.8
73316;BME280;61545;53.726;-0.444;2022-09-13T09:03:10;1009.2;;;20.4;57.0
73316;BME280;61545;53.726;-0.444;2022-09-13T09:08:02;1009.3;;;20.4;56.1
73316;BME280;61545;53.726;-0.444;2022-09-13T09:13:02;1009.2;;;20.6;56.5
73316;BME280;61545;53.726;-0.444;2022-09-13T09:18:02;1009.2;;;19.3;55.7
73316;BME280;61545;53.726;-0.444;2022-09-13T09:23:02;1009.3;;;18.1;55.9
73316;BME280;61545;53.726;-0.444;2022-09-13T09:28:00;1009.4;;;18.4;56.0
73316;BME280;61545;53.726;-0.444;2022-09-13T09:33:07;1009.3;;;18.9;56.3
73316;BME280;61545;53.726;-0.444;2022-09-13T09:38:19;1009.3;;;19.4;56.7
73316;BME280;61545;53.726;-0.444;2022-09-13T09:43:00;1009.3;;;20.7;56.9
73316;BME280;61545;53.726;-0.444;2022-09-13T09:48:03;1009.4;;;19.2;56.2
73316;BME280;61545;53.726;-0.444;2022-09-13T09:53:02;1009.4;;;18.7;56.1
73316;BME280;61545;53.726;-0.444;2022-09-13T09:58:01;1009.5;;;19.3;56.9
73316;BME280;61545;53.726;-0.444;2022-09-13T10:03:01;1009.5;;;18.5;57.0
73316;BME280;61545;53.726;-0.444;2022-09-13T10:08:01;1009.5;;;19.9;59.0
73316;BME280;61545;53.726;-0.444;2022-09-13T10:13:00;1009.4;;;20.1;60.5
73316;BME280;61545;53.726;-0.444;2022-09-13T10:18:05;1009.4;;;20.0;61.4
73316;BME280;61545;53.726;-0.444;2022-09-13T10:23:10;1009.3;;;20.4;61.2
73316;BME280;61545;53.726;-0.444;2022-09-13T10:28:00;1009.3;;;20.2;61.5
73316;BME280;61545;53.726;-0.444;2022-09-13T10:33:00;1009.2;;;19.7;61.9
73316;BME280;61545;53.726;-0.444;2022-09-13T10:38:00;1009.2;;;19.9;62.3
73316;BME280;61545;53.726;-0.444;2022-09-13T10:43:01;1009.3;;;20.2;62.5
73316;BME280;61545;53.726;-0.444;2022-09-13T10:48:03;1009.4;;;20.3;62.1
73316;BME280;61545;53.726;-0.444;2022-09-13T10:53:00;1009.4;;;19.6;60.9
73316;BME280;61545;53.726;-0.444;2022-09-13T10:58:17;1009.3;;;19.1;60.9
73316;BME280;61545;53.726;-0.444;2022-09-13T11:03:11;1009.3;;;20.0;60.6
73316;BME280;61545;53.726;-0.444;2022-09-13T11:08:07;1009.2;;;19.7;59.3
73316;BME280;61545;53.726;-0.444;2022-09-13T11:13:03;1009.3;;;18.9;58.7
73316;BME280;61545;53.726;-0.444;2022-09-13T11:18:08;1009.3;;;19.4;58.6
73316;BME280;61545;53.726;-0.444;2022-09-13T11:23:39;1009.2;;;18.7;58.3
73316;BME280;61545;53.726;-0.444;2022-09-13T11:28:06;1009.3;;;19.0;58.1
73316;BME280;61545;53.726;-0.444;2022-09-13T11:33:08;1009.1;;;18.7;57.2
73316;BME280;61545;53.726;-0.444;2022-09-13T11:38:04;1009.1;;;19.2;58.0
73316;BME280;61545;53.726;-0.444;2022-09-13T11:43:08;1009.0;;;18.4;57.4
73316;BME280;61545;53.726;-0.444;2022-09-13T11:48:24;1009.0;;;19.0;57.1
73316;BME280;61545;53.726;-0.444;2022-09-13T11:53:10;1009.0;;;19.4;56.9
73316;BME280;61545;53.726;-0.444;2022-09-13T11:58:01;1009.0;;;19.1;56.1
73316;BME280;61545;53.726;-0.444;2022-09-13T12:03:03;1008.9;;;19.0;54.9
73316;BME280;61545;53.726;-0.444;2022-09-13T12:08:03;1008.8;;;18.9;55.5
73316;BME280;61545;53.726;-0.444;2022-09-13T12:13:01;1008.9;;;18.9;55.8
73316;BME280;61545;53.726;-0.444;2022-09-13T12:18:01;1008.8;;;19.2;56.5
73316;BME280;61545;53.726;-0.444;2022-09-13T12:23:01;1008.8;;;18.6;56.1
73316;BME280;61545;53.726;-0.444;2022-09-13T12:28:02;1008.9;;;19.0;56.5
73316;BME280;61545;53.726;-0.444;2022-09-13T12:33:00;1008.8;;;18.7;56.7
73316;BME280;61545;53.726;-0.444;2022-09-13T12:38:11;1008.7;;;18.7;56.8
73316;BME280;61545;53.726;-0.444;2022-09-13T12:43:07;1008.8;;;18.8;57.0
73316;BME280;61545;53.726;-0.444;2022-09-13T12:48:08;1008.7;;;19.0;56.8
73316;BME280;61545;53.726;-0.444;2022-09-13T12:53:06;1008.7;;;19.4;55.9
73316;BME280;61545;53.726;-0.444;2022-09-13T12:58:07;1008.7;;;19.2;55.2
73316;BME280;61545;53.726;-0.444;2022-09-13T13:03:03;1008.6;;;18.9;55.2
73316;BME280;61545;53.726;-0.444;2022-09-13T13:08:02;1008.6;;;19.4;54.9
73316;BME280;61545;53.726;-0.444;2022-09-13T13:13:18;1008.5;;;18.2;54.6
73316;BME280;61545;53.726;-0.444;2022-09-13T13:18:19;1008.5;;;18.3;55.3
73316;BME280;61545;53.726;-0.444;2022-09-13T13:23:03;1008.5;;;18.8;54.8
73316;BME280;61545;53.726;-0.444;2022-09-13T13:28:00;1008.5;;;18.4;54.7
73316;BME280;61545;53.726;-0.444;2022-09-13T13:33:04;1008.4;;;18.1;55.5
73316;BME280;61545;53.726;-0.444;2022-09-13T13:38:13;1008.4;;;19.2;55.8
73316;BME280;61545;53.726;-0.444;2022-09-13T13:43:28;1008.4;;;19.2;55.5
73316;BME280;61545;53.726;-0.444;2022-09-13T13:48:08;1008.4;;;18.7;55.7
73316;BME280;61545;53.726;-0.444;2022-09-13T13:53:17;1008.5;;;18.9;56.7
73316;BME280;61545;53.726;-0.444;2022-09-13T13:58:02;1008.5;;;19.0;57.0
73316;BME280;61545;53.726;-0.444;2022-09-13T14:03:08;1008.4;;;18.3;57.1
73316;BME280;61545;53.726;-0.444;2022-09-13T14:08:15;1008.5;;;18.6;57.8
73316;BME280;61545;53.726;-0.444;2022-09-13T14:13:14;1008.5;;;18.5;57.1
73316;BME280;61545;53.726;-0.444;2022-09-13T14:18:10;1008.4;;;18.5;57.3
73316;BME280;61545;53.726;-0.444;2022-09-13T14:23:16;1008.4;;;18.4;57.3
73316;BME280;61545;53.726;-0.444;2022-09-13T14:28:00;1008.4;;;18.0;57.0
73316;BME280;61545;53.726;-0.444;2022-09-13T14:33:00;1008.4;;;18.7;57.3
73316;BME280;61545;53.726;-0.444;2022-09-13T14:38:18;1008.4;;;18.4;57.2
73316;BME280;61545;53.726;-0.444;2022-09-13T14:43:00;1008.4;;;18.2;57.5
73316;BME280;61545;53.726;-0.444;2022-09-13T14:48:01;1008.4;;;18.2;58.5
73316;BME280;61545;53.726;-0.444;2022-09-13T14:53:01;1008.5;;;18.0;59.3
73316;BME280;61545;53.726;-0.444;2022-09-13T14:58:01;1008.5;;;17.7;60.2
73316;BME280;61545;53.726;-0.444;2022-09-13T15:03:02;1008.4;;;18.0;60.6
73316;BME280;61545;53.726;-0.444;2022-09-13T15:08:22;1008.4;;;18.1;60.5
73316;BME280;61545;53.726;-0.444;2022-09-13T15:13:07;1008.3;;;18.2;60.5
73316;BME280;61545;53.726;-0.444;2022-09-13T15:18:01;1008.4;;;18.1;60.3
73316;BME280;61545;53.726;-0.444;2022-09-13T15:23:00;1008.4;;;17.6;60.9
73316;BME280;61545;53.726;-0.444;2022-09-13T15:28:00;1008.3;;;17.4;61.6
73316;BME280;61545;53.726;-0.444;2022-09-13T15:33:05;1008.3;;;17.4;61.6
73316;BME280;61545;53.726;-0.444;2022-09-13T15:38:06;1008.4;;;17.5;61.8
73316;BME280;61545;53.726;-0.444;2022-09-13T15:43:00;1008.3;;;17.5;61.8
73316;BME280;61545;53.726;-0.444;2022-09-13T15:48:00;1008.3;;;17.5;61.8
73316;BME280;61545;53.726;-0.444;2022-09-13T15:53:00;1008.3;;;17.4;62.2
73316;BME280;61545;53.726;-0.444;2022-09-13T15:58:00;1008.3;;;17.3;62.7
73316;BME280;61545;53.726;-0.444;2022-09-13T16:03:00;1008.2;;;17.4;62.9
73316;BME280;61545;53.726;-0.444;2022-09-13T16:08:00;1008.2;;;17.1;63.5
73316;BME280;61545;53.726;-0.444;2022-09-13T16:13:00;1008.3;;;17.0;64.1
73316;BME280;61545;53.726;-0.444;2022-09-13T16:18:00;1008.2;;;17.0;64.6
73316;BME280;61545;53.726;-0.444;2022-09-13T16:23:00;1008.2;;;16.9;64.7
73316;BME280;61545;53.726;-0.444;2022-09-13T16:28:00;1008.3;;;16.9;65.1
73316;BME280;61545;53.726;-0.444;2022-09-13T16:33:00;1008.2;;;16.7;64.8
73316;BME280;61545;53.726;-0.444;2022-09-13T16:38:00;1008.1;;;16.7;64.6
73316;BME280;61545;53.726;-0.444;2022-09-13T16:43:00;1008.1;;;16.8;64.7
73316;BME280;61545;53.726;-0.444;2022-09-13T16:48:00;1008.2;;;16.7;64.5
73316;BME280;61545;53.726;-0.444;2022-09-13T16:53:00;1008.3;;;16.4;64.8
73316;BME280;61545;53.726;-0.444;2022-09-13T16:58:00;1008.2;;;16.4;65.1
73316;BME280;61545;53.726;-0.444;2022-09-13T17:03:00;1008.2;;;16.4;65.3
73316;BME280;61545;53.726;-0.444;2022-09-13T17:08:00;1008.2;;;16.2;65.4
73316;BME280;61545;53.726;-0.444;2022-09-13T17:13:00;1008.2;;;16.2;65.7
73316;BME280;61545;53.726;-0.444;2022-09-13T17:18:00;1008.2;;;16.1;66.2
73316;BME280;61545;53.726;-0.444;2022-09-13T17:23:00;1008.2;;;16.0;66.8
73316;BME280;61545;53.726;-0.444;2022-09-13T17:28:00;1008.1;;;15.9;67.4
73316;BME280;61545;53.726;-0.444;2022-09-13T17:33:00;1008.1;;;15.9;67.3
73316;BME280;61545;53.726;-0.444;2022-09-13T17:38:00;1008.1;;;15.9;67.4
73316;BME280;61545;53.726;-0.444;2022-09-13T17:43:00;1008.2;;;15.8;67.4
73316;BME280;61545;53.726;-0.444;2022-09-13T17:48:00;1008.2;;;15.7;67.7
73316;BME280;61545;53.726;-0.444;2022-09-13T17:53:00;1008.2;;;15.6;67.5
73316;BME280;61545;53.726;-0.444;2022-09-13T17:58:00;1008.1;;;15.6;67.5
73316;BME280;61545;53.726;-0.444;2022-09-13T18:03:00;1008.1;;;15.6;67.4
73316;BME280;61545;53.726;-0.444;2022-09-13T18:08:00;1008.0;;;15.4;67.4
73316;BME280;61545;53.726;-0.444;2022-09-13T18:13:00;1007.9;;;15.3;67.3
73316;BME280;61545;53.726;-0.444;2022-09-13T18:18:00;1007.9;;;15.4;67.4
73316;BME280;61545;53.726;-0.444;2022-09-13T18:23:00;1007.9;;;15.2;67.3
73316;BME280;61545;53.726;-0.444;2022-09-13T18:28:00;1007.9;;;15.0;67.4
73316;BME280;61545;53.726;-0.444;2022-09-13T18:33:00;1007.9;;;15.2;67.6
73316;BME280;61545;53.726;-0.444;2022-09-13T18:38:00;1007.9;;;15.1;67.8
73316;BME280;61545;53.726;-0.444;2022-09-13T18:43:00;1008.0;;;15.1;68.0
73316;BME280;61545;53.726;-0.444;2022-09-13T18:48:00;1008.0;;;15.1;68.4
73316;BME280;61545;53.726;-0.444;2022-09-13T18:53:00;1008.0;;;15.0;68.8
73316;BME280;61545;53.726;-0.444;2022-09-13T18:58:00;1008.0;;;15.0;69.1
73316;BME280;61545;53.726;-0.444;2022-09-13T19:03:00;1008.0;;;15.0;69.5
73316;BME280;61545;53.726;-0.444;2022-09-13T19:08:00;1008.0;;;15.0;69.8
73316;BME280;61545;53.726;-0.444;2022-09-13T19:13:00;1008.0;;;14.9;70.1
73316;BME280;61545;53.726;-0.444;2022-09-13T19:18:00;1008.0;;;14.9;70.5
73316;BME280;61545;53.726;-0.444;2022-09-13T19:23:00;1007.9;;;14.9;70.7
73316;BME280;61545;53.726;-0.444;2022-09-13T19:28:00;1007.9;;;14.9;70.8
73316;BME280;61545;53.726;-0.444;2022-09-13T19:33:00;1007.9;;;14.9;70.9
73316;BME280;61545;53.726;-0.444;2022-09-13T19:38:00;1008.0;;;14.9;71.2
73316;BME280;61545;53.726;-0.444;2022-09-13T19:43:00;1008.0;;;14.9;71.6
73316;BME280;61545;53.726;-0.444;2022-09-13T19:48:00;1008.0;;;14.9;71.9
73316;BME280;61545;53.726;-0.444;2022-09-13T19:53:00;1008.0;;;14.9;72.4
73316;BME280;61545;53.726;-0.444;2022-09-13T19:58:00;1007.9;;;14.9;72.8
73316;BME280;61545;53.726;-0.444;2022-09-13T20:03:00;1007.8;;;14.7;73.1
73316;BME280;61545;53.726;-0.444;2022-09-13T20:08:00;1007.8;;;14.7;73.4
73316;BME280;61545;53.726;-0.444;2022-09-13T20:13:00;1007.8;;;14.7;73.5
73316;BME280;61545;53.726;-0.444;2022-09-13T20:18:00;1007.8;;;14.7;73.8
73316;BME280;61545;53.726;-0.444;2022-09-13T20:23:00;1007.8;;;14.6;74.0
73316;BME280;61545;53.726;-0.444;2022-09-13T20:28:00;1007.8;;;14.7;74.5
73316;BME280;61545;53.726;-0.444;2022-09-13T20:33:00;1007.8;;;14.7;74.6
73316;BME280;61545;53.726;-0.444;2022-09-13T20:38:00;1007.8;;;14.5;75.1
73316;BME280;61545;53.726;-0.444;2022-09-13T20:43:00;1007.9;;;14.5;75.4
73316;BME280;61545;53.726;-0.444;2022-09-13T20:48:00;1007.9;;;14.6;75.6
73316;BME280;61545;53.726;-0.444;2022-09-13T20:53:00;1007.8;;;14.4;76.0
73316;BME280;61545;53.726;-0.444;2022-09-13T20:58:00;1007.7;;;14.4;76.5
73316;BME280;61545;53.726;-0.444;2022-09-13T21:03:00;1007.7;;;14.5;76.8
73316;BME280;61545;53.726;-0.444;2022-09-13T21:08:00;1007.7;;;14.5;77.1
73316;BME280;61545;53.726;-0.444;2022-09-13T21:13:00;1007.7;;;14.5;77.5
73316;BME280;61545;53.726;-0.444;2022-09-13T21:18:00;1007.7;;;14.5;77.9
73316;BME280;61545;53.726;-0.444;2022-09-13T21:23:00;1007.8;;;14.4;78.2
73316;BME280;61545;53.726;-0.444;2022-09-13T21:28:00;1007.7;;;14.4;78.6
73316;BME280;61545;53.726;-0.444;2022-09-13T21:33:00;1007.6;;;14.3;78.9
73316;BME280;61545;53.726;-0.444;2022-09-13T21:38:00;1007.7;;;14.2;79.2
73316;BME280;61545;53.726;-0.444;2022-09-13T21:43:00;1007.6;;;14.0;79.6
73316;BME280;61545;53.726;-0.444;2022-09-13T21:48:00;1007.6;;;14.2;80.0
73316;BME280;61545;53.726;-0.444;2022-09-13T21:53:00;1007.6;;;14.2;80.1
73316;BME280;61545;53.726;-0.444;2022-09-13T21:58:00;1007.5;;;14.1;80.5
73316;BME280;61545;53.726;-0.444;2022-09-13T22:03:00;1007.5;;;14.0;80.8
73316;BME280;61545;53.726;-0.444;2022-09-13T22:08:01;1007.4;;;14.0;81.1
73316;BME280;61545;53.726;-0.444;2022-09-13T22:13:01;1007.4;;;13.9;81.5
73316;BME280;61545;53.726;-0.444;2022-09-13T22:18:00;1007.4;;;13.9;81.8
73316;BME280;61545;53.726;-0.444;2022-09-13T22:23:00;1007.4;;;13.9;82.0
73316;BME280;61545;53.726;-0.444;2022-09-13T22:28:00;1007.4;;;13.9;82.3
73316;BME280;61545;53.726;-0.444;2022-09-13T22:33:00;1007.4;;;13.9;82.4
73316;BME280;61545;53.726;-0.444;2022-09-13T22:38:00;1007.4;;;13.9;82.6
73316;BME280;61545;53.726;-0.444;2022-09-13T22:43:00;1007.4;;;13.8;82.7
73316;BME280;61545;53.726;-0.444;2022-09-13T22:48:00;1007.4;;;13.7;82.6
73316;BME280;61545;53.726;-0.444;2022-09-13T22:53:00;1007.4;;;13.7;82.6
73316;BME280;61545;53.726;-0.444;2022-09-13T22:58:00;1007.3;;;13.7;82.7
73316;BME280;61545;53.726;-0.444;2022-09-13T23:03:00;1007.2;;;13.7;82.7
73316;BME280;61545;53.726;-0.444;2022-09-13T23:08:00;1007.3;;;13.7;82.9
73316;BME280;61545;53.726;-0.444;2022-09-13T23:13:00;1007.3;;;13.7;83.0
73316;BME280;61545;53.726;-0.444;2022-09-13T23:18:00;1007.3;;;13.5;83.2
73316;BME280;61545;53.726;-0.444;2022-09-13T23:23:00;1007.2;;;13.6;83.3
73316;BME280;61545;53.726;-0.444;2022-09-13T23:28:00;1007.2;;;13.6;83.5
73316;BME280;61545;53.726;-0.444;2022-09-13T23:33:00;1007.1;;;13.5;83.5
73316;BME280;61545;53.726;-0.444;2022-09-13T23:38:00;1007.1;;;13.4;83.4
73316;BME280;61545;53.726;-0.444;2022-09-13T23:43:00;1007.1;;;13.4;83.4
73316;BME280;61545;53.726;-0.444;2022-09-13T23:48:00;1007.0;;;13.4;83.5
73316;BME280;61545;53.726;-0.444;2022-09-13T23:53:00;1007.0;;;13.4;83.8
73316;BME280;61545;53.726;-0.444;2022-09-13T23:58:00;1006.8;;;13.4;83.8
